sensor_id;sensor_type;location;lat;lon;timestamp;temperature;humidity
14699;DHT22;7439;50.804;4.602;2023-07-16T19:33:51;19.50;1.00
14699;DHT22;7439;50.804;4.602;2023-07-16T19:36:20;16.80;99.90
14699;DHT22;7439;50.804;4.602;2023-07-16T19:38:47;16.30;99.90
14699;DHT22;7439;50.804;4.602;2023-07-16T19:41:15;16.20;99.90
14699;DHT22;7439;50.804;4.602;2023-07-16T19:43:42;16.20;99.90
14699;DHT22;7439;50.804;4.602;2023-07-16T19:46:09;16.10;99.90
14699;DHT22;7439;50.804;4.602;2023-07-16T19:48:36;16.10;99.90
14699;DHT22;7439;50.804;4.602;2023-07-16T19:51:04;16.00;99.90
14699;DHT22;7439;50.804;4.602;2023-07-16T19:53:32;16.00;99.90
14699;DHT22;7439;50.804;4.602;2023-07-16T19:56:00;16.00;99.90
14699;DHT22;7439;50.804;4.602;2023-07-16T19:58:27;16.00;99.90
14699;DHT22;7439;50.804;4.602;2023-07-16T20:00:54;16.00;99.90
14699;DHT22;7439;50.804;4.602;2023-07-16T20:03:22;15.90;99.90
14699;DHT22;7439;50.804;4.602;2023-07-16T20:05:49;15.80;99.90
14699;DHT22;7439;50.804;4.602;2023-07-16T20:08:16;15.80;99.90
14699;DHT22;7439;50.804;4.602;2023-07-16T20:10:47;15.80;99.90
14699;DHT22;7439;50.804;4.602;2023-07-16T20:13:17;15.70;99.90
14699;DHT22;7439;50.804;4.602;2023-07-16T20:15:50;15.70;99.90
14699;DHT22;7439;50.804;4.602;2023-07-16T20:18:17;15.70;99.90
14699;DHT22;7439;50.804;4.602;2023-07-16T20:20:44;15.60;99.90
14699;DHT22;7439;50.804;4.602;2023-07-16T20:23:12;15.60;99.90
14699;DHT22;7439;50.804;4.602;2023-07-16T20:25:39;15.60;99.90
14699;DHT22;7439;50.804;4.602;2023-07-16T20:28:10;15.60;99.90
14699;DHT22;7439;50.804;4.602;2023-07-16T20:30:40;15.60;99.90
14699;DHT22;7439;50.804;4.602;2023-07-16T20:33:07;15.50;99.90
14699;DHT22;7439;50.804;4.602;2023-07-16T20:35:34;15.50;99.90
14699;DHT22;7439;50.804;4.602;2023-07-16T20:38:02;15.60;99.90
14699;DHT22;7439;50.804;4.602;2023-07-16T20:40:31;15.60;99.90
14699;DHT22;7439;50.804;4.602;2023-07-16T20:42:59;15.60;99.90
14699;DHT22;7439;50.804;4.602;2023-07-16T20:45:29;15.50;99.90
14699;DHT22;7439;50.804;4.602;2023-07-16T20:47:58;15.50;99.90
14699;DHT22;7439;50.804;4.602;2023-07-16T20:50:27;15.50;99.90
14699;DHT22;7439;50.804;4.602;2023-07-16T20:52:57;15.50;99.90
14699;DHT22;7439;50.804;4.602;2023-07-16T20:55:25;15.50;99.90
14699;DHT22;7439;50.804;4.602;2023-07-16T20:57:53;15.40;99.90
14699;DHT22;7439;50.804;4.602;2023-07-16T21:00:21;15.40;99.90
14699;DHT22;7439;50.804;4.602;2023-07-16T21:02:54;15.40;99.90
14699;DHT22;7439;50.804;4.602;2023-07-16T21:05:22;15.50;99.90
14699;DHT22;7439;50.804;4.602;2023-07-16T21:07:50;15.50;99.90
14699;DHT22;7439;50.804;4.602;2023-07-16T21:10:17;15.50;99.90
14699;DHT22;7439;50.804;4.602;2023-07-16T21:12:48;15.50;99.90
14699;DHT22;7439;50.804;4.602;2023-07-16T21:15:16;15.60;99.90
14699;DHT22;7439;50.804;4.602;2023-07-16T21:17:43;15.60;99.90
14699;DHT22;7439;50.804;4.602;2023-07-16T21:20:11;15.60;99.90
14699;DHT22;7439;50.804;4.602;2023-07-16T21:22:39;15.60;99.90
14699;DHT22;7439;50.804;4.602;2023-07-16T21:25:08;15.60;99.90
14699;DHT22;7439;50.804;4.602;2023-07-16T21:27:40;15.60;99.90
14699;DHT22;7439;50.804;4.602;2023-07-16T21:30:08;15.60;99.90
14699;DHT22;7439;50.804;4.602;2023-07-16T21:32:36;15.60;99.90
14699;DHT22;7439;50.804;4.602;2023-07-16T21:35:04;15.60;99.90
14699;DHT22;7439;50.804;4.602;2023-07-16T21:37:35;15.60;99.90
14699;DHT22;7439;50.804;4.602;2023-07-16T21:40:03;15.60;99.90
14699;DHT22;7439;50.804;4.602;2023-07-16T21:42:31;15.50;99.90
14699;DHT22;7439;50.804;4.602;2023-07-16T21:44:59;15.50;99.90
14699;DHT22;7439;50.804;4.602;2023-07-16T21:47:26;15.40;99.90
14699;DHT22;7439;50.804;4.602;2023-07-16T21:49:53;15.40;99.90
14699;DHT22;7439;50.804;4.602;2023-07-16T21:52:20;15.30;99.90
14699;DHT22;7439;50.804;4.602;2023-07-16T21:54:49;15.30;99.90
14699;DHT22;7439;50.804;4.602;2023-07-16T21:57:17;15.30;99.90
14699;DHT22;7439;50.804;4.602;2023-07-16T21:59:44;15.30;99.90
14699;DHT22;7439;50.804;4.602;2023-07-16T22:02:11;15.20;99.90
14699;DHT22;7439;50.804;4.602;2023-07-16T22:04:38;15.20;99.90
14699;DHT22;7439;50.804;4.602;2023-07-16T22:07:05;15.20;99.90
14699;DHT22;7439;50.804;4.602;2023-07-16T22:09:33;15.20;99.90
14699;DHT22;7439;50.804;4.602;2023-07-16T22:12:01;15.10;99.90
14699;DHT22;7439;50.804;4.602;2023-07-16T22:14:29;15.10;99.90
14699;DHT22;7439;50.804;4.602;2023-07-16T22:16:58;15.10;99.90
14699;DHT22;7439;50.804;4.602;2023-07-16T22:19:25;15.10;99.90
14699;DHT22;7439;50.804;4.602;2023-07-16T22:21:52;15.00;99.90
14699;DHT22;7439;50.804;4.602;2023-07-16T22:24:20;15.00;99.90
14699;DHT22;7439;50.804;4.602;2023-07-16T22:26:47;15.00;99.90
14699;DHT22;7439;50.804;4.602;2023-07-16T22:29:15;15.00;99.90
14699;DHT22;7439;50.804;4.602;2023-07-16T22:31:43;15.00;99.90
14699;DHT22;7439;50.804;4.602;2023-07-16T22:34:10;14.90;99.90
14699;DHT22;7439;50.804;4.602;2023-07-16T22:36:41;14.90;99.90
14699;DHT22;7439;50.804;4.602;2023-07-16T22:39:08;14.90;99.90
14699;DHT22;7439;50.804;4.602;2023-07-16T22:41:36;14.90;99.90
14699;DHT22;7439;50.804;4.602;2023-07-16T22:44:04;14.90;99.90
14699;DHT22;7439;50.804;4.602;2023-07-16T22:46:32;14.90;99.90
14699;DHT22;7439;50.804;4.602;2023-07-16T22:48:59;14.90;99.90
14699;DHT22;7439;50.804;4.602;2023-07-16T22:51:26;14.80;99.90
14699;DHT22;7439;50.804;4.602;2023-07-16T22:53:54;14.80;99.90
14699;DHT22;7439;50.804;4.602;2023-07-16T22:56:21;14.90;99.90
14699;DHT22;7439;50.804;4.602;2023-07-16T22:58:49;14.80;99.90
14699;DHT22;7439;50.804;4.602;2023-07-16T23:01:16;14.90;99.90
14699;DHT22;7439;50.804;4.602;2023-07-16T23:03:44;14.80;99.90
14699;DHT22;7439;50.804;4.602;2023-07-16T23:06:11;14.80;99.90
14699;DHT22;7439;50.804;4.602;2023-07-16T23:08:39;14.80;99.90
14699;DHT22;7439;50.804;4.602;2023-07-16T23:11:06;14.80;99.90
14699;DHT22;7439;50.804;4.602;2023-07-16T23:13:33;14.80;99.90
14699;DHT22;7439;50.804;4.602;2023-07-16T23:16:00;14.80;99.90
14699;DHT22;7439;50.804;4.602;2023-07-16T23:18:28;14.80;99.90
14699;DHT22;7439;50.804;4.602;2023-07-16T23:20:56;14.70;99.90
14699;DHT22;7439;50.804;4.602;2023-07-16T23:23:24;14.70;99.90
14699;DHT22;7439;50.804;4.602;2023-07-16T23:25:51;14.70;99.90
14699;DHT22;7439;50.804;4.602;2023-07-16T23:28:18;14.70;99.90
14699;DHT22;7439;50.804;4.602;2023-07-16T23:30:45;14.70;99.90
14699;DHT22;7439;50.804;4.602;2023-07-16T23:33:12;14.70;99.90
14699;DHT22;7439;50.804;4.602;2023-07-16T23:35:40;14.60;99.90
14699;DHT22;7439;50.804;4.602;2023-07-16T23:38:08;14.60;99.90
14699;DHT22;7439;50.804;4.602;2023-07-16T23:40:37;14.60;99.90
14699;DHT22;7439;50.804;4.602;2023-07-16T23:43:04;14.50;99.90
14699;DHT22;7439;50.804;4.602;2023-07-16T23:45:32;14.50;99.90
14699;DHT22;7439;50.804;4.602;2023-07-16T23:47:59;14.50;99.90
14699;DHT22;7439;50.804;4.602;2023-07-16T23:50:26;14.40;99.90
14699;DHT22;7439;50.804;4.602;2023-07-16T23:52:53;14.40;99.90
14699;DHT22;7439;50.804;4.602;2023-07-16T23:55:22;14.40;99.90
14699;DHT22;7439;50.804;4.602;2023-07-16T23:57:49;14.30;99.90
